Time;durP1;ratioP1;P1;durP2;ratioP2;P2;SDS_P1;SDS_P2;PMS_P1;PMS_P2;Temp;Humidity;BMP_temperature;BMP_pressure;BME280_temperature;BME280_humidity;BME280_pressure;Samples;Min_cycle;Max_cycle;Signal;HPM_P1;HPM_P2
2023/09/01 00:01:22;;;;;;;1.90;1.60;;;;;;;10.93;81.63;99618.34;218013;1260;140225;-66
2023/09/01 00:06:26;;;;;;;1.90;1.10;;;;;;;10.94;82.19;99618.59;217477;1260;140596;-68
2023/09/01 00:11:28;;;;;;;1.90;1.80;;;;;;;11.02;82.41;99623.98;217786;1259;140545;-66
2023/09/01 00:16:31;;;;;;;2.20;1.50;;;;;;;11.11;82.74;99623.56;218631;1256;140053;-66
2023/09/01 00:21:33;;;;;;;1.90;1.70;;;;;;;11.22;82.75;99624.98;217022;1257;140414;-66
2023/09/01 00:26:38;;;;;;;1.20;1.10;;;;;;;11.32;82.77;99621.99;218148;1256;139816;-67
2023/09/01 00:31:41;;;;;;;1.60;1.50;;;;;;;11.43;82.97;99625.48;217796;1256;140866;-66
2023/09/01 00:36:43;;;;;;;2.60;1.30;;;;;;;11.49;82.67;99609.35;219406;1256;140124;-66
2023/09/01 00:41:46;;;;;;;1.70;1.60;;;;;;;11.55;82.51;99608.23;218802;1256;140785;-66
2023/09/01 00:46:49;;;;;;;2.60;1.90;;;;;;;11.61;82.29;99614.50;218033;1256;140156;-65
2023/09/01 00:51:51;;;;;;;1.50;1.30;;;;;;;11.66;82.48;99616.23;219757;1256;140005;-65
2023/09/01 00:56:54;;;;;;;1.60;1.50;;;;;;;11.70;82.48;99621.25;220386;1256;141469;-66
2023/09/01 01:01:57;;;;;;;2.50;1.90;;;;;;;11.72;82.16;99620.22;220429;1256;140188;-67
2023/09/01 01:07:08;;;;;;;2.40;2.20;;;;;;;11.71;81.97;99622.02;220497;1256;140592;-67
2023/09/01 01:12:29;;;;;;;1.20;1.20;;;;;;;11.74;81.84;99625.15;217895;1259;139814;-66
2023/09/01 01:17:33;;;;;;;1.30;1.20;;;;;;;11.74;81.78;99619.71;218713;1258;140510;-63
2023/09/01 01:22:40;;;;;;;1.60;1.40;;;;;;;11.71;81.50;99618.85;218292;1257;141717;-68
2023/09/01 01:27:44;;;;;;;;;;;;;;;11.62;81.54;99625.83;219027;1256;140742;-67
2023/09/01 01:32:47;;;;;;;3.50;1.90;;;;;;;11.45;81.79;99626.16;219775;1256;128594;-68
2023/09/01 01:38:21;;;;;;;1.70;1.40;;;;;;;11.38;82.11;99626.14;218181;1257;140462;-68
2023/09/01 01:43:27;;;;;;;2.10;1.30;;;;;;;11.30;82.35;99623.14;217354;1257;140708;-68
2023/09/01 01:48:30;;;;;;;2.30;1.90;;;;;;;11.24;82.47;99621.77;217994;1259;141261;-68
2023/09/01 01:53:35;;;;;;;3.40;1.80;;;;;;;11.16;82.75;99614.10;217289;1257;139958;-72
2023/09/01 01:58:41;;;;;;;2.90;1.90;;;;;;;11.11;82.95;99616.63;217466;1258;140742;-73
2023/09/01 02:03:45;;;;;;;3.50;1.90;;;;;;;11.06;83.03;99616.48;217871;1256;140211;-68
2023/09/01 02:08:48;;;;;;;1.60;1.50;;;;;;;11.01;83.15;99621.63;217450;1260;139802;-68
2023/09/01 02:13:50;;;;;;;2.10;2.00;;;;;;;10.98;83.36;99634.92;217656;1260;140302;-67
2023/09/01 02:18:53;;;;;;;2.90;2.20;;;;;;;10.99;83.48;99638.10;218695;1256;141439;-68
2023/09/01 02:23:56;;;;;;;4.20;1.90;;;;;;;11.00;83.48;99630.31;217424;1257;139960;-67
2023/09/01 02:28:59;;;;;;;3.90;1.80;;;;;;;11.00;83.54;99637.30;218807;1256;143357;-67
2023/09/01 02:34:05;;;;;;;1.40;1.30;;;;;;;10.98;83.52;99640.52;218456;1256;140517;-67
2023/09/01 02:39:09;;;;;;;2.50;2.30;;;;;;;10.92;83.34;99637.85;218071;1257;140299;-68
2023/09/01 02:44:12;;;;;;;1.20;1.10;;;;;;;10.84;83.32;99625.42;218904;1256;140390;-67
2023/09/01 02:49:16;;;;;;;2.30;1.70;;;;;;;10.80;83.62;99633.67;220315;1256;140362;-68
2023/09/01 02:54:19;;;;;;;2.00;1.80;;;;;;;10.77;83.70;99635.70;220292;1256;142558;-67
2023/09/01 02:59:23;;;;;;;3.00;1.90;;;;;;;10.76;83.72;99634.36;220095;1256;140445;-68
2023/09/01 03:04:26;;;;;;;1.50;1.40;;;;;;;10.79;83.81;99641.34;220620;1256;140514;-67
2023/09/01 03:09:30;;;;;;;1.90;1.80;;;;;;;10.82;83.85;99648.23;220347;1256;140739;-68
2023/09/01 03:14:34;;;;;;;1.30;1.20;;;;;;;10.84;83.84;99654.91;217842;1257;140338;-67
2023/09/01 03:19:38;;;;;;;2.40;2.10;;;;;;;10.80;83.78;99654.27;217468;1260;140306;-66
2023/09/01 03:24:42;;;;;;;1.90;1.80;;;;;;;10.77;83.86;99657.35;218138;1256;141984;-66
2023/09/01 03:29:51;;;;;;;5.50;2.40;;;;;;;10.76;84.10;99662.83;217382;1256;140804;-67
2023/09/01 03:34:55;;;;;;;4.10;2.10;;;;;;;10.77;84.21;99660.27;218609;1260;139915;-66
2023/09/01 03:39:59;;;;;;;3.40;2.50;;;;;;;10.78;84.17;99658.48;217747;1256;140912;-66
2023/09/01 03:45:04;;;;;;;1.90;1.80;;;;;;;10.71;83.99;99659.16;217837;1257;139833;-66
2023/09/01 03:50:08;;;;;;;2.40;2.10;;;;;;;10.61;83.85;99660.73;217622;1259;140135;-66
2023/09/01 03:55:11;;;;;;;2.10;1.80;;;;;;;10.55;83.92;99664.64;217772;1257;140114;-67
2023/09/01 04:00:14;;;;;;;3.80;2.60;;;;;;;10.52;84.22;99668.30;218289;1256;139669;-67
2023/09/01 04:05:18;;;;;;;2.70;2.00;;;;;;;10.54;84.63;99671.02;217899;1257;140243;-67
2023/09/01 04:10:22;;;;;;;5.70;2.80;;;;;;;10.53;84.71;99665.98;217555;1256;140141;-67
2023/09/01 04:15:27;;;;;;;1.90;1.70;;;;;;;10.58;85.05;99674.99;219227;1257;141226;-68
2023/09/01 04:20:31;;;;;;;2.50;1.70;;;;;;;10.64;85.29;99672.00;218957;1256;140719;-67
2023/09/01 04:25:38;;;;;;;2.30;2.10;;;;;;;10.67;85.30;99673.17;218423;1256;140421;-67
2023/09/01 04:30:46;;;;;;;3.00;2.00;;;;;;;10.66;85.18;99669.30;217354;1258;140339;-66
2023/09/01 04:35:58;;;;;;;2.10;1.80;;;;;;;10.64;85.31;99667.61;219427;1256;141289;-67
2023/09/01 04:41:02;;;;;;;2.90;2.00;;;;;;;10.64;85.31;99663.67;217876;1257;142280;-65
2023/09/01 04:46:06;;;;;;;2.50;2.00;;;;;;;10.67;85.10;99673.27;217953;1256;140182;-72
2023/09/01 04:51:11;;;;;;;2.70;1.90;;;;;;;10.70;85.27;99677.85;220349;1256;140545;-68
2023/09/01 04:56:15;;;;;;;3.00;2.40;;;;;;;10.75;85.62;99677.36;220299;1257;140542;-68
2023/09/01 05:01:20;;;;;;;2.60;2.40;;;;;;;10.87;85.87;99685.50;219043;1256;141131;-67
2023/09/01 05:06:26;;;;;;;4.70;3.40;;;;;;;11.00;85.60;99687.45;220146;1257;140362;-68
2023/09/01 05:11:31;;;;;;;13.80;5.70;;;;;;;11.12;85.90;99688.40;217796;1256;140218;-68
2023/09/01 05:16:36;;;;;;;3.30;3.00;;;;;;;11.28;85.98;99686.30;219405;1257;142323;-69
2023/09/01 05:21:42;;;;;;;3.80;3.30;;;;;;;11.42;86.17;99696.51;218750;1258;141096;-67
2023/09/01 05:26:47;;;;;;;14.40;3.90;;;;;;;11.59;86.10;99702.73;218367;1257;140280;-66
2023/09/01 05:31:49;;;;;;;5.20;3.20;;;;;;;11.70;85.72;99708.46;218569;1257;140272;-67
2023/09/01 05:36:56;;;;;;;4.10;3.10;;;;;;;11.85;86.16;99711.94;217349;1257;139932;-67
2023/09/01 05:42:01;;;;;;;4.20;3.00;;;;;;;12.01;85.77;99711.37;218197;1257;141159;-67
2023/09/01 05:47:06;;;;;;;10.40;3.40;;;;;;;12.17;85.94;99711.68;218981;1256;140057;-69
2023/09/01 05:52:10;;;;;;;2.60;2.40;;;;;;;12.30;85.50;99721.31;217210;1257;140026;-65
2023/09/01 05:57:16;;;;;;;3.30;3.00;;;;;;;12.47;85.18;99721.65;218037;1260;140053;-66
2023/09/01 06:02:21;;;;;;;3.40;2.50;;;;;;;12.79;85.04;99726.39;217423;1259;140620;-66
2023/09/01 06:07:25;;;;;;;3.40;2.50;;;;;;;13.13;85.05;99731.11;217457;1256;139865;-70
2023/09/01 06:12:29;;;;;;;1.90;1.70;;;;;;;13.40;84.34;99733.23;218406;1256;141461;-67
2023/09/01 06:17:37;;;;;;;4.40;2.30;;;;;;;13.62;83.86;99734.08;217436;1256;140859;-68
2023/09/01 06:22:53;;;;;;;4.10;2.60;;;;;;;13.67;83.48;99730.66;219606;1257;140814;-67
2023/09/01 06:27:57;;;;;;;2.40;2.20;;;;;;;13.72;83.20;99728.02;218413;1257;140576;-67
2023/09/01 06:33:01;;;;;;;2.90;1.50;;;;;;;13.87;82.96;99725.51;218115;1257;140485;-67
2023/09/01 06:38:08;;;;;;;1.50;1.40;;;;;;;14.08;82.81;99730.52;219221;1257;139888;-68
2023/09/01 06:43:11;;;;;;;1.80;1.50;;;;;;;14.33;82.35;99731.78;220295;1256;140260;-68
2023/09/01 06:48:15;;;;;;;1.60;1.30;;;;;;;14.84;81.52;99734.46;220462;1256;140494;-69
2023/09/01 06:53:19;;;;;;;1.00;0.90;;;;;;;15.58;80.23;99738.68;220150;1257;141216;-68
2023/09/01 06:58:23;;;;;;;2.80;1.80;;;;;;;16.16;78.81;99738.80;220338;1256;140545;-67
2023/09/01 07:03:29;;;;;;;1.60;1.40;;;;;;;16.57;77.91;99746.36;218941;1256;141074;-66
2023/09/01 07:08:33;;;;;;;1.50;1.40;;;;;;;17.02;76.73;99749.44;217435;1259;139960;-66
2023/09/01 07:13:39;;;;;;;3.10;1.80;;;;;;;17.55;75.90;99748.71;219048;1257;140173;-66
2023/09/01 07:18:42;;;;;;;4.40;2.00;;;;;;;18.59;75.31;99745.63;219419;1257;141815;-69
2023/09/01 07:23:47;;;;;;;1.60;1.50;;;;;;;19.72;74.07;99750.58;217836;1259;138997;-69
2023/09/01 07:28:52;;;;;;;2.80;2.10;;;;;;;20.46;72.98;99756.71;219989;1260;140519;-69
2023/09/01 07:33:57;;;;;;;2.20;1.90;;;;;;;20.98;71.87;99758.67;217998;1260;139271;-70
2023/09/01 07:39:02;;;;;;;2.30;1.80;;;;;;;21.27;70.10;99762.91;217686;1257;141592;-68
2023/09/01 07:44:08;;;;;;;1.30;1.20;;;;;;;21.44;68.69;99768.91;218246;1259;140302;-67
2023/09/01 07:49:13;;;;;;;3.30;1.90;;;;;;;21.60;68.36;99764.20;217995;1256;139207;-66
2023/09/01 07:54:19;;;;;;;2.40;2.10;;;;;;;21.68;67.06;99766.23;218519;1256;139683;-66
2023/09/01 07:59:23;;;;;;;2.40;1.60;;;;;;;21.73;66.33;99767.88;218008;1260;139763;-66
2023/09/01 08:04:27;;;;;;;3.10;1.90;;;;;;;21.75;65.74;99765.83;217833;1259;139647;-67
2023/09/01 08:09:32;;;;;;;1.80;1.60;;;;;;;21.80;65.12;99768.04;218365;1259;140881;-67
2023/09/01 08:14:35;;;;;;;2.00;1.80;;;;;;;21.90;64.22;99765.85;217888;1257;139566;-66
2023/09/01 08:19:40;;;;;;;1.10;1.00;;;;;;;21.84;63.48;99767.72;218244;1257;140670;-66
2023/09/01 08:24:46;;;;;;;3.40;1.90;;;;;;;21.69;62.17;99767.23;218874;1257;140146;-68
2023/09/01 08:29:50;;;;;;;1.80;1.50;;;;;;;21.72;63.00;99765.95;217701;1257;139542;-67
2023/09/01 08:34:54;;;;;;;2.90;2.00;;;;;;;22.04;63.02;99768.33;217916;1257;140557;-67
2023/09/01 08:39:59;;;;;;;1.60;1.50;;;;;;;22.23;62.06;99766.79;217898;1260;139567;-66
2023/09/01 08:45:07;;;;;;;2.40;1.50;;;;;;;22.16;61.23;99772.83;218621;1259;139367;-67
2023/09/01 08:50:13;;;;;;;2.20;1.80;;;;;;;21.95;60.30;99778.22;219222;1256;139858;-67
2023/09/01 08:55:20;;;;;;;3.40;2.20;;;;;;;21.94;60.41;99778.15;217999;1257;139026;-68
2023/09/01 09:00:25;;;;;;;2.20;1.50;;;;;;;22.02;60.29;99778.51;219197;1256;139760;-66
2023/09/01 09:05:34;;;;;;;2.30;2.00;;;;;;;22.19;59.78;99773.73;219060;1259;139919;-67
2023/09/01 09:10:46;;;;;;;2.60;1.90;;;;;;;22.16;59.05;99770.70;218057;1257;139889;-66
2023/09/01 09:16:08;;;;;;;1.90;1.70;;;;;;;22.19;58.86;99772.86;218221;1259;140019;-67
2023/09/01 09:21:23;;;;;;;1.70;1.60;;;;;;;22.38;58.59;99771.92;218283;1256;140342;-67
2023/09/01 09:26:30;;;;;;;1.20;1.10;;;;;;;22.25;57.65;99776.80;218026;1256;140170;-66
2023/09/01 09:31:44;;;;;;;1.50;1.40;;;;;;;22.26;57.64;99775.18;217788;1256;139763;-68
2023/09/01 09:36:49;;;;;;;1.90;1.40;;;;;;;22.24;57.68;99775.13;218139;1261;140487;-67
2023/09/01 09:41:59;;;;;;;4.80;2.10;;;;;;;22.60;58.01;99772.37;217894;1257;138981;-67
2023/09/01 09:47:10;;;;;;;2.40;1.80;;;;;;;22.71;57.03;99779.79;217756;1257;139343;-67
2023/09/01 09:52:17;;;;;;;3.70;1.90;;;;;;;22.69;57.00;99777.13;218445;1256;139441;-67
2023/09/01 09:57:23;;;;;;;5.20;1.60;;;;;;;22.44;56.92;99775.91;217523;1256;139133;-66
2023/09/01 10:02:36;;;;;;;1.70;1.60;;;;;;;22.80;57.03;99784.84;218476;1256;139162;-66
2023/09/01 10:07:42;;;;;;;1.30;1.20;;;;;;;22.54;55.98;99785.63;217648;1256;138996;-65
2023/09/01 10:12:53;;;;;;;5.00;2.00;;;;;;;22.61;56.40;99781.55;217489;1261;140586;-67
2023/09/01 10:18:05;;;;;;;3.10;1.90;;;;;;;22.62;55.74;99788.04;217746;1261;139432;-67
2023/09/01 10:23:12;;;;;;;5.80;2.20;;;;;;;22.88;55.98;99778.30;218805;1261;140940;-68
2023/09/01 10:28:19;;;;;;;1.70;1.50;;;;;;;22.94;55.31;99779.48;219219;1257;140385;-68
2023/09/01 10:33:26;;;;;;;2.50;2.20;;;;;;;23.07;55.56;99777.38;218520;1257;138789;-67
2023/09/01 10:38:34;;;;;;;1.90;1.60;;;;;;;22.68;54.64;99782.86;219871;1260;139492;-67
2023/09/01 10:43:44;;;;;;;1.50;1.40;;;;;;;22.45;54.82;99781.41;220429;1257;139930;-68
2023/09/01 10:48:59;;;;;;;2.20;2.00;;;;;;;22.56;55.06;99778.20;220145;1260;140457;-68
2023/09/01 10:54:19;;;;;;;23.90;2.80;;;;;;;23.20;55.98;99771.70;218038;1257;234634;-66
2023/09/01 10:59:29;;;;;;;1.50;1.40;;;;;;;23.47;55.48;99775.85;217804;1260;140604;-67
2023/09/01 11:04:39;;;;;;;6.30;4.00;;;;;;;23.42;54.30;99769.77;218656;1257;139804;-67
2023/09/01 11:09:50;;;;;;;2.10;1.80;;;;;;;23.25;53.86;99775.32;218233;1257;139806;-67
2023/09/01 11:14:56;;;;;;;1.60;1.50;;;;;;;23.04;53.85;99774.52;218282;1260;140173;-67
2023/09/01 11:19:59;;;;;;;1.60;1.50;;;;;;;22.75;53.06;99775.06;217862;1257;139370;-67
2023/09/01 11:25:03;;;;;;;1.70;1.30;;;;;;;22.60;53.31;99781.35;217727;1257;139934;-67
2023/09/01 11:30:08;;;;;;;3.70;1.30;;;;;;;22.98;53.92;99774.15;217793;1260;139288;-67
2023/09/01 11:35:29;;;;;;;1.30;1.10;;;;;;;23.25;53.47;99772.87;217905;1257;139347;-67
2023/09/01 11:40:36;;;;;;;1.50;1.40;;;;;;;23.37;52.86;99774.84;218268;1260;139571;-67
2023/09/01 11:45:48;;;;;;;2.40;1.70;;;;;;;23.26;52.75;99774.91;218255;1257;140643;-67
2023/09/01 11:50:55;;;;;;;2.70;1.90;;;;;;;22.97;52.12;99768.70;217864;1260;138951;-66
2023/09/01 11:56:01;;;;;;;1.50;1.40;;;;;;;23.06;52.24;99767.23;217542;1260;139444;-66
2023/09/01 12:01:12;;;;;;;2.10;1.50;;;;;;;23.17;52.26;99764.97;218103;1260;139197;-66
2023/09/01 12:06:27;;;;;;;2.60;1.40;;;;;;;23.21;52.29;99759.53;217534;1260;140211;-66
2023/09/01 12:11:32;;;;;;;2.50;1.00;;;;;;;23.37;52.67;99757.46;218005;1258;139847;-66
2023/09/01 12:16:36;;;;;;;2.80;1.50;;;;;;;23.25;51.95;99761.58;217917;1257;139555;-65
2023/09/01 12:21:45;;;;;;;3.00;1.70;;;;;;;22.90;51.47;99765.58;218528;1260;139231;-65
2023/09/01 12:26:51;;;;;;;3.60;2.00;;;;;;;22.33;51.57;99766.61;217837;1260;222868;-65
2023/09/01 12:31:59;;;;;;;2.10;1.20;;;;;;;22.02;52.17;99765.90;220388;1260;140612;-67
2023/09/01 12:37:03;;;;;;;3.60;1.70;;;;;;;21.99;52.22;99765.91;219697;1257;139258;-66
2023/09/01 12:42:08;;;;;;;5.30;1.50;;;;;;;21.84;52.75;99760.02;219493;1260;139570;-66
2023/09/01 12:47:12;;;;;;;3.70;1.30;;;;;;;22.33;53.33;99757.38;220706;1257;139629;-66
2023/09/01 12:52:16;;;;;;;4.10;2.00;;;;;;;22.88;53.20;99756.34;219311;1260;140712;-65
2023/09/01 12:57:25;;;;;;;4.00;2.00;;;;;;;22.70;52.60;99761.90;218634;1260;140699;-65
2023/09/01 13:02:29;;;;;;;2.70;1.80;;;;;;;22.39;52.18;99762.48;217896;1260;139484;-65
2023/09/01 13:07:36;;;;;;;3.90;2.00;;;;;;;22.18;52.20;99760.82;218197;1260;139840;-66
2023/09/01 13:12:48;;;;;;;2.80;1.70;;;;;;;22.03;52.16;99758.00;217616;1258;139904;-68
2023/09/01 13:17:53;;;;;;;2.20;1.60;;;;;;;22.12;52.28;99754.97;217811;1260;140353;-66
2023/09/01 13:23:08;;;;;;;2.10;1.40;;;;;;;22.44;52.56;99745.64;218102;1257;139073;-65
2023/09/01 13:28:22;;;;;;;2.00;1.80;;;;;;;22.78;52.48;99753.95;217674;1260;139751;-66
2023/09/01 13:33:25;;;;;;;1.90;1.80;;;;;;;22.94;51.80;99754.27;217537;1260;139210;-67
2023/09/01 13:38:29;;;;;;;1.60;1.50;;;;;;;22.87;51.66;99756.55;217392;1261;140323;-64
2023/09/01 13:43:33;;;;;;;2.00;1.90;;;;;;;22.83;51.72;99754.88;217863;1256;139931;-68
2023/09/01 13:48:37;;;;;;;1.70;1.40;;;;;;;22.67;51.57;99760.67;218136;1260;140423;-67
2023/09/01 13:53:42;;;;;;;8.70;2.20;;;;;;;22.55;51.34;99759.64;218579;1257;139616;-65
2023/09/01 13:58:47;;;;;;;4.30;1.90;;;;;;;22.65;51.68;99762.98;217728;1259;139137;-65
2023/09/01 14:03:51;;;;;;;2.40;1.80;;;;;;;22.71;51.51;99758.15;218309;1260;139876;-66
2023/09/01 14:08:55;;;;;;;2.10;1.60;;;;;;;22.37;51.05;99760.00;218427;1257;141091;-68
2023/09/01 14:14:00;;;;;;;3.30;1.80;;;;;;;22.40;51.74;99760.80;218164;1258;139458;-68
2023/09/01 14:19:05;;;;;;;3.70;1.50;;;;;;;22.44;51.32;99765.84;218389;1257;139257;-67
2023/09/01 14:24:12;;;;;;;2.00;1.90;;;;;;;22.41;51.19;99765.05;218614;1257;138922;-66
2023/09/01 14:29:17;;;;;;;2.20;1.70;;;;;;;22.34;51.53;99769.84;217818;1260;141043;-69
2023/09/01 14:34:23;;;;;;;4.10;1.90;;;;;;;22.43;51.40;99768.96;220085;1258;138975;-66
2023/09/01 14:39:27;;;;;;;1.80;1.70;;;;;;;22.25;51.23;99765.33;218467;1256;139339;-66
2023/09/01 14:44:31;;;;;;;13.30;2.80;;;;;;;21.95;51.27;99773.48;218737;1256;139486;-68
2023/09/01 14:49:38;;;;;;;6.70;2.20;;;;;;;21.79;51.70;99772.50;217757;1257;139801;-66
2023/09/01 14:54:42;;;;;;;10.50;2.40;;;;;;;21.82;52.05;99770.70;217888;1257;139363;-67
2023/09/01 14:59:50;;;;;;;1.80;1.70;;;;;;;21.64;52.11;99778.84;218606;1257;139179;-65
2023/09/01 15:04:54;;;;;;;1.60;1.50;;;;;;;21.37;52.22;99781.31;217663;1260;139518;-65
2023/09/01 15:09:58;;;;;;;3.40;2.50;;;;;;;21.25;52.67;99774.91;218697;1257;139561;-67
2023/09/01 15:15:03;;;;;;;2.50;1.90;;;;;;;21.25;52.86;99770.56;217621;1260;139720;-66
2023/09/01 15:20:10;;;;;;;2.80;2.40;;;;;;;21.24;53.37;99771.17;218469;1257;140456;-66
2023/09/01 15:25:15;;;;;;;5.40;1.60;;;;;;;21.19;53.40;99778.46;218440;1258;140131;-65
2023/09/01 15:30:19;;;;;;;4.60;1.80;;;;;;;21.04;53.51;99772.30;217984;1257;141301;-66
2023/09/01 15:35:23;;;;;;;2.90;1.90;;;;;;;20.93;53.63;99765.34;218536;1260;139527;-66
2023/09/01 15:40:34;;;;;;;5.50;2.70;;;;;;;20.80;53.80;99766.41;218042;1256;139620;-65
2023/09/01 15:45:48;;;;;;;5.50;2.10;;;;;;;20.79;54.33;99771.15;218049;1260;140150;-65
2023/09/01 15:50:59;;;;;;;5.90;2.20;;;;;;;20.82;55.25;99766.15;218341;1256;140168;-62
2023/09/01 15:56:07;;;;;;;4.40;2.90;;;;;;;20.83;55.15;99771.34;219004;1257;140711;-64
2023/09/01 16:01:13;;;;;;;2.60;1.90;;;;;;;20.84;55.58;99774.95;217315;1258;139492;-66
2023/09/01 16:06:32;;;;;;;29.00;3.50;;;;;;;20.92;55.60;99770.30;217643;1260;139650;-66
2023/09/01 16:11:37;;;;;;;3.10;1.70;;;;;;;20.85;55.64;99765.24;217968;1260;139209;-65
2023/09/01 16:16:41;;;;;;;3.40;2.10;;;;;;;20.73;56.07;99767.01;217984;1260;139942;-65
2023/09/01 16:21:44;;;;;;;14.60;2.80;;;;;;;20.61;57.01;99759.73;217917;1257;139466;-65
2023/09/01 16:26:54;;;;;;;3.00;2.60;;;;;;;20.49;57.73;99763.13;218979;1258;139489;-66
2023/09/01 16:31:59;;;;;;;17.90;2.40;;;;;;;20.31;58.80;99760.13;220193;1257;139993;-66
2023/09/01 16:37:04;;;;;;;2.40;2.00;;;;;;;20.10;59.52;99760.69;217752;1259;140494;-64
2023/09/01 16:42:08;;;;;;;6.40;2.70;;;;;;;19.85;60.01;99755.48;219249;1257;140378;-65
2023/09/01 16:47:13;;;;;;;2.20;1.90;;;;;;;19.70;60.95;99764.48;218507;1257;139546;-64
2023/09/01 16:52:18;;;;;;;2.40;1.90;;;;;;;19.53;61.58;99760.79;219058;1256;141059;-66
2023/09/01 16:57:24;;;;;;;1.80;1.60;;;;;;;19.24;62.33;99748.00;218829;1257;141031;-65
2023/09/01 17:02:28;;;;;;;2.00;1.90;;;;;;;18.91;63.28;99745.55;218179;1256;140320;-62
2023/09/01 17:07:33;;;;;;;2.40;1.90;;;;;;;18.66;63.94;99761.14;218904;1257;140485;-65
2023/09/01 17:12:42;;;;;;;5.60;2.50;;;;;;;18.43;64.48;99765.41;217518;1258;140227;-67
2023/09/01 17:17:46;;;;;;;3.60;1.80;;;;;;;18.26;65.11;99771.25;217363;1257;140464;-67
2023/09/01 17:22:50;;;;;;;4.00;3.30;;;;;;;18.16;65.68;99778.18;218603;1257;139819;-68
2023/09/01 17:27:56;;;;;;;4.20;3.60;;;;;;;18.06;66.05;99781.19;217693;1260;139745;-67
2023/09/01 17:33:02;;;;;;;5.30;3.00;;;;;;;17.81;66.11;99775.94;218094;1260;140091;-66
2023/09/01 17:38:09;;;;;;;5.90;2.70;;;;;;;17.53;66.71;99780.80;217518;1258;140608;-66
2023/09/01 17:43:16;;;;;;;2.40;2.20;;;;;;;17.28;67.32;99785.95;217184;1257;140307;-66
2023/09/01 17:48:21;;;;;;;;;;;;;;;17.13;68.05;99788.77;218275;1257;139915;-66
2023/09/01 17:53:25;;;;;;;2.70;2.20;;;;;;;17.05;68.72;99794.09;217834;1257;126595;-66
2023/09/01 17:58:30;;;;;;;5.00;2.00;;;;;;;16.92;68.94;99803.88;218402;1257;139955;-65
2023/09/01 18:03:39;;;;;;;7.00;3.60;;;;;;;16.71;69.11;99810.03;217792;1256;139868;-65
2023/09/01 18:08:46;;;;;;;10.40;2.70;;;;;;;16.42;69.36;99804.19;218229;1257;140703;-66
2023/09/01 18:13:50;;;;;;;5.40;2.90;;;;;;;16.20;69.82;99805.92;217570;1257;141012;-66
2023/09/01 18:18:55;;;;;;;5.70;2.80;;;;;;;16.03;70.38;99806.58;219062;1257;140265;-66
2023/09/01 18:24:26;;;;;;;2.90;2.60;;;;;;;15.89;70.72;99814.26;217877;1260;139892;-66
2023/09/01 18:29:30;;;;;;;11.80;4.60;;;;;;;15.69;70.98;99814.11;218938;1257;140962;-67
2023/09/01 18:34:40;;;;;;;5.90;3.10;;;;;;;15.46;71.18;99822.32;218059;1257;139999;-65
2023/09/01 18:39:46;;;;;;;2.90;2.60;;;;;;;15.32;71.58;99825.86;219389;1257;140434;-66
2023/09/01 18:44:50;;;;;;;8.90;4.80;;;;;;;15.24;71.86;99824.89;220068;1257;140528;-66
2023/09/01 18:49:54;;;;;;;3.60;3.20;;;;;;;15.13;72.14;99826.34;219575;1256;139856;-66
2023/09/01 18:54:59;;;;;;;11.30;3.60;;;;;;;15.02;72.36;99823.65;217803;1256;140507;-66
2023/09/01 19:00:13;;;;;;;6.40;3.80;;;;;;;14.89;72.72;99825.91;217666;1256;140697;-66
2023/09/01 19:05:36;;;;;;;4.10;3.30;;;;;;;14.72;73.08;99831.65;217848;1257;139887;-65
2023/09/01 19:10:49;;;;;;;7.50;4.90;;;;;;;14.59;73.63;99835.02;217688;1257;140180;-65
2023/09/01 19:15:56;;;;;;;11.70;5.00;;;;;;;14.56;74.10;99839.55;218660;1257;140103;-66
2023/09/01 19:21:02;;;;;;;5.70;4.30;;;;;;;14.57;74.15;99845.03;218295;1256;140268;-65
2023/09/01 19:26:20;;;;;;;6.00;4.80;;;;;;;14.47;74.22;99841.19;217676;1257;140160;-65
2023/09/01 19:31:27;;;;;;;6.20;4.50;;;;;;;14.29;74.66;99850.96;217766;1256;139859;-65
2023/09/01 19:36:32;;;;;;;9.20;5.30;;;;;;;14.23;75.18;99858.10;218385;1260;141152;-66
2023/09/01 19:41:37;;;;;;;7.40;5.20;;;;;;;14.26;75.80;99845.36;217492;1256;142357;-65
2023/09/01 19:46:40;;;;;;;16.70;4.80;;;;;;;14.24;75.81;99843.73;217616;1258;139799;-66
2023/09/01 19:51:45;;;;;;;9.20;6.40;;;;;;;14.21;76.20;99849.65;217598;1257;140419;-67
2023/09/01 19:56:48;;;;;;;7.90;5.10;;;;;;;14.19;76.52;99852.21;217551;1259;141948;-66
2023/09/01 20:01:51;;;;;;;6.00;5.20;;;;;;;14.10;76.61;99856.73;217691;1260;141709;-66
2023/09/01 20:06:56;;;;;;;10.50;4.40;;;;;;;14.02;77.02;99853.31;217540;1256;140159;-66
2023/09/01 20:12:04;;;;;;;5.30;4.40;;;;;;;13.93;77.30;99858.64;219427;1259;140470;-67
2023/09/01 20:17:08;;;;;;;6.30;5.20;;;;;;;13.87;77.54;99864.67;218892;1256;139910;-66
2023/09/01 20:22:12;;;;;;;6.20;4.70;;;;;;;13.87;77.91;99865.16;217638;1257;141727;-66
2023/09/01 20:27:15;;;;;;;5.20;4.60;;;;;;;13.90;78.14;99870.55;219666;1256;140107;-67
2023/09/01 20:32:18;;;;;;;8.40;4.30;;;;;;;13.86;78.25;99873.02;220227;1256;139827;-67
2023/09/01 20:37:21;;;;;;;5.70;3.80;;;;;;;13.83;78.33;99879.27;219896;1257;141310;-67
2023/09/01 20:42:28;;;;;;;6.50;4.70;;;;;;;13.78;78.59;99877.88;219370;1256;140513;-67
2023/09/01 20:47:32;;;;;;;6.10;4.90;;;;;;;13.83;78.99;99869.20;218811;1256;139926;-65
2023/09/01 20:52:38;;;;;;;9.30;4.90;;;;;;;13.88;79.09;99876.58;218644;1259;140954;-65
2023/09/01 20:57:46;;;;;;;7.30;5.40;;;;;;;13.92;79.13;99877.16;218951;1257;141312;-65
2023/09/01 21:02:57;;;;;;;5.10;4.70;;;;;;;13.90;79.21;99875.42;218464;1259;140376;-65
2023/09/01 21:08:03;;;;;;;10.00;4.40;;;;;;;13.86;79.21;99875.55;218389;1257;140788;-67
2023/09/01 21:13:13;;;;;;;6.10;3.90;;;;;;;13.79;79.49;99873.93;218364;1258;141567;-66
2023/09/01 21:18:18;;;;;;;5.70;4.50;;;;;;;13.74;79.46;99874.91;217493;1256;140062;-67
2023/09/01 21:23:22;;;;;;;6.70;5.60;;;;;;;13.75;80.01;99875.60;218521;1257;139937;-67
2023/09/01 21:28:26;;;;;;;6.10;5.50;;;;;;;13.70;79.84;99875.93;217575;1256;141067;-67
2023/09/01 21:33:34;;;;;;;6.00;5.30;;;;;;;13.64;79.89;99876.71;217248;1260;140535;-67
2023/09/01 21:38:37;;;;;;;6.80;4.70;;;;;;;13.61;80.40;99884.92;217894;1260;141823;-67
2023/09/01 21:43:39;;;;;;;7.00;6.20;;;;;;;13.52;80.51;99890.82;217676;1256;139962;-67
2023/09/01 21:48:41;;;;;;;13.10;6.20;;;;;;;13.41;80.79;99897.17;218491;1256;141056;-66
2023/09/01 21:53:44;;;;;;;5.90;5.40;;;;;;;13.40;80.96;99895.30;217508;1260;139837;-66
2023/09/01 21:58:48;;;;;;;6.60;5.00;;;;;;;13.41;81.25;99893.49;219207;1256;141570;-67
2023/09/01 22:03:50;;;;;;;8.30;5.40;;;;;;;13.46;81.39;99890.16;218582;1257;140127;-67
2023/09/01 22:08:53;;;;;;;15.00;6.60;;;;;;;13.55;81.84;99886.67;217472;1256;140077;-66
2023/09/01 22:13:55;;;;;;;9.00;5.70;;;;;;;13.62;81.84;99886.02;220246;1256;140885;-67
2023/09/01 22:18:58;;;;;;;10.00;6.30;;;;;;;13.67;82.00;99885.65;220219;1257;140534;-67
2023/09/01 22:24:03;;;;;;;6.50;5.60;;;;;;;13.71;81.95;99889.19;219650;1256;141629;-67
2023/09/01 22:29:06;;;;;;;6.20;5.60;;;;;;;13.74;81.73;99892.80;220331;1257;140438;-67
2023/09/01 22:34:10;;;;;;;8.90;7.00;;;;;;;13.71;81.68;99888.80;218182;1256;139656;-67
2023/09/01 22:39:13;;;;;;;6.90;5.70;;;;;;;13.70;81.78;99885.41;218109;1256;140034;-66
2023/09/01 22:44:16;;;;;;;7.00;5.60;;;;;;;13.70;82.03;99885.58;217877;1257;140568;-66
2023/09/01 22:49:21;;;;;;;6.50;5.80;;;;;;;13.66;81.97;99885.73;218431;1257;139769;-65
2023/09/01 22:54:24;;;;;;;7.90;6.40;;;;;;;13.63;82.15;99890.84;217522;1260;413707;-66
2023/09/01 22:59:28;;;;;;;6.20;5.60;;;;;;;13.61;82.26;99893.19;218749;1256;231869;-66
2023/09/01 23:04:34;;;;;;;6.60;5.30;;;;;;;13.59;82.44;99891.92;217836;1256;141762;-66
2023/09/01 23:09:42;;;;;;;7.70;5.70;;;;;;;13.60;82.82;99887.33;217678;1260;139824;-66
2023/09/01 23:14:45;;;;;;;7.10;5.10;;;;;;;13.61;83.06;99887.55;218154;1257;140076;-66
2023/09/01 23:19:49;;;;;;;10.50;6.20;;;;;;;13.57;82.98;99885.52;217896;1256;139751;-66
2023/09/01 23:24:53;;;;;;;11.00;6.30;;;;;;;13.56;83.37;99881.06;218657;1256;139874;-66